| time (UTC) | temp F | wind direction | speed MPH | gust MPH | rain 1hr in | rain 24hr in | rain mn in | humidity % | barometer mb |
| 20260503180306 | 71 | 354 | 4.0 | 8.0 | 0.00 | 0.00 | 0.00 | 60 | 1012.2 |
| 20260503175435 | 71 | 359 | 4.0 | 10.0 | 0.00 | 0.00 | 0.00 | 62 | 1012.2 |
| 20260503174447 | 70 | 351 | 3.0 | 8.0 | 0.00 | 0.00 | 0.00 | 64 | 1012.4 |
| 20260503173535 | 70 | 17 | 3.0 | 8.0 | 0.00 | 0.00 | 0.00 | 64 | 1012.4 |
| 20260503172658 | 69 | 11 | 3.0 | 6.0 | 0.00 | 0.00 | 0.00 | 65 | 1012.4 |
| 20260503171739 | 69 | 16 | 3.0 | 6.0 | 0.00 | 0.00 | 0.00 | 67 | 1012.5 |
| 20260503170750 | 68 | 357 | 4.0 | 8.0 | 0.00 | 0.00 | 0.00 | 69 | 1012.4 |
| 20260503150153 | 61 | 105 | 1.0 | 3.0 | 0.00 | 0.00 | 0.00 | 81 | 1012.8 |
| 20260503131357 | 57 | 39 | 2.0 | 4.0 | 0.00 | 0.00 | 0.00 | 88 | 1012.3 |
| 20260503130550 | 57 | 43 | 2.0 | 4.0 | 0.00 | 0.00 | 0.00 | 88 | 1012.3 |
| 20260503120212 | 57 | 47 | 2.0 | 4.0 | 0.00 | 0.00 | 0.00 | 89 | 1012.4 |
| 20260503090227 | 60 | 9 | 1.0 | 2.0 | 0.00 | 0.00 | 0.00 | 83 | 1013.1 |
| 20260503072608 | 62 | 345 | 3.0 | 5.0 | 0.00 | 0.01 | 0.00 | 81 | 1013.2 |
| 20260503071745 | 62 | 347 | 2.0 | 4.0 | 0.00 | 0.01 | 0.00 | 82 | 1013.2 |
| 20260503070808 | 62 | 339 | 1.0 | 3.0 | 0.00 | 0.01 | 0.00 | 81 | 1013.2 |
| 20260503054828 | 63 | 141 | 0.0 | 3.0 | 0.00 | 0.01 | 0.01 | 78 | 1013.1 |
| 20260503053125 | 63 | 53 | 2.0 | 6.0 | 0.00 | 0.01 | 0.01 | 78 | 1012.9 |
| 20260503052245 | 63 | 38 | 3.0 | 7.0 | 0.00 | 0.01 | 0.01 | 78 | 1012.7 |
| 20260503051259 | 63 | 46 | 3.0 | 8.0 | 0.00 | 0.01 | 0.01 | 78 | 1012.9 |
| 20260503050355 | 63 | 32 | 4.0 | 8.0 | 0.00 | 0.01 | 0.01 | 78 | 1012.8 |
| 20260503045420 | 63 | 28 | 4.0 | 7.0 | 0.00 | 0.01 | 0.01 | 79 | 1013.0 |
| 20260503044510 | 63 | 81 | 3.0 | 6.0 | 0.00 | 0.01 | 0.01 | 79 | 1013.3 |
| 20260503043608 | 62 | 64 | 4.0 | 8.0 | 0.00 | 0.01 | 0.01 | 78 | 1013.3 |
| 20260503042728 | 63 | 52 | 3.0 | 6.0 | 0.00 | 0.01 | 0.01 | 77 | 1013.1 |
| 20260503041759 | 63 | 86 | 1.0 | 2.0 | 0.00 | 0.01 | 0.01 | 75 | 1013.0 |
| 20260503040855 | 64 | 99 | 1.0 | 2.0 | 0.00 | 0.01 | 0.01 | 75 | 1013.0 |
| 20260503035040 | 64 | 106 | 0.0 | 1.0 | 0.00 | 0.01 | 0.01 | 74 | 1013.0 |
| 20260503034059 | 64 | 108 | 0.0 | 2.0 | 0.00 | 0.01 | 0.01 | 73 | 1013.0 |
| 20260503033145 | 64 | 89 | 1.0 | 3.0 | 0.00 | 0.01 | 0.01 | 73 | 1012.9 |
| 20260503032300 | 63 | 0.0 | 0.0 | 0.00 | 0.01 | 0.01 | 76 | 1012.9 | |
| 20260503031354 | 62 | 215 | 0.0 | 2.0 | 0.00 | 0.01 | 0.01 | 78 | 1012.8 |
| 20260503030454 | 62 | 214 | 1.0 | 3.0 | 0.00 | 0.01 | 0.01 | 79 | 1012.7 |
| 20260503025459 | 62 | 216 | 2.0 | 6.0 | 0.00 | 0.01 | 0.01 | 79 | 1012.7 |
| 20260503024510 | 62 | 213 | 4.0 | 10.0 | 0.00 | 0.01 | 0.01 | 79 | 1012.9 |
| 20260503023708 | 63 | 221 | 4.0 | 12.0 | 0.00 | 0.01 | 0.01 | 78 | 1012.8 |
| 20260503022757 | 63 | 214 | 6.0 | 18.0 | 0.00 | 0.01 | 0.01 | 77 | 1012.7 |
| 20260503021024 | 66 | 218 | 7.0 | 17.0 | 0.00 | 0.01 | 0.01 | 73 | 1012.8 |
| 20260503020055 | 68 | 212 | 4.0 | 11.0 | 0.00 | 0.01 | 0.01 | 68 | 1012.5 |
| 20260503015255 | 69 | 221 | 1.0 | 5.0 | 0.00 | 0.01 | 0.01 | 66 | 1012.1 |
| 20260503014425 | 69 | 208 | 1.0 | 3.0 | 0.00 | 0.01 | 0.01 | 66 | 1012.0 |
| 20260503013523 | 69 | 240 | 0.0 | 2.0 | 0.00 | 0.01 | 0.01 | 65 | 1012.1 |
| 20260503012607 | 70 | 0.0 | 0.0 | 0.00 | 0.01 | 0.01 | 64 | 1012.1 | |
| 20260503011724 | 70 | 260 | 0.0 | 1.0 | 0.00 | 0.01 | 0.01 | 64 | 1012.0 |
| 20260503010756 | 69 | 270 | 0.0 | 3.0 | 0.00 | 0.01 | 0.01 | 65 | 1012.0 |
| 20260503005835 | 70 | 323 | 2.0 | 4.0 | 0.00 | 0.01 | 0.01 | 63 | 1012.0 |
| 20260503004110 | 70 | 35 | 0.0 | 3.0 | 0.00 | 0.01 | 0.01 | 63 | 1012.1 |
| 20260503003217 | 70 | 301 | 0.0 | 3.0 | 0.00 | 0.01 | 0.01 | 63 | 1012.0 |
| 20260503002236 | 70 | 316 | 2.0 | 4.0 | 0.00 | 0.01 | 0.01 | 63 | 1012.0 |
| 20260503001405 | 70 | 358 | 1.0 | 4.0 | 0.00 | 0.01 | 0.01 | 62 | 1012.0 |
| 20260503000605 | 69 | 270 | 2.0 | 7.0 | 0.00 | 0.01 | 0.01 | 62 | 1012.1 |
| 20260502235620 | 69 | 291 | 1.0 | 6.0 | 0.00 | 0.01 | 0.01 | 63 | 1012.1 |
| 20260502234745 | 68 | 303 | 2.0 | 6.0 | 0.00 | 0.01 | 0.01 | 65 | 1012.3 |
| 20260502233754 | 69 | 313 | 3.0 | 6.0 | 0.00 | 0.01 | 0.01 | 65 | 1012.4 |
| 20260502232845 | 69 | 318 | 3.0 | 6.0 | 0.00 | 0.01 | 0.01 | 64 | 1012.6 |
| 20260502231022 | 69 | 332 | 3.0 | 7.0 | 0.00 | 0.01 | 0.01 | 64 | 1012.6 |
| 20260502230115 | 69 | 290 | 3.0 | 6.0 | 0.00 | 0.01 | 0.01 | 64 | 1012.8 |
| 20260502225255 | 68 | 15 | 2.0 | 5.0 | 0.00 | 0.01 | 0.01 | 65 | 1012.9 |
| 20260502224448 | 67 | 336 | 3.0 | 7.0 | 0.00 | 0.01 | 0.01 | 66 | 1013.0 |
| 20260502223550 | 68 | 6 | 2.0 | 5.0 | 0.00 | 0.01 | 0.01 | 65 | 1013.2 |
| 20260502222745 | 67 | 32 | 2.0 | 6.0 | 0.00 | 0.01 | 0.01 | 66 | 1013.3 |
| 20260502221900 | 67 | 353 | 1.0 | 4.0 | 0.00 | 0.01 | 0.01 | 68 | 1013.5 |
| 20260502220914 | 66 | 314 | 2.0 | 4.0 | 0.00 | 0.01 | 0.01 | 68 | 1013.6 |
| 20260502215030 | 66 | 300 | 3.0 | 6.0 | 0.00 | 0.01 | 0.01 | 68 | 1013.7 |
| 20260502214115 | 64 | 60 | 1.0 | 3.0 | 0.00 | 0.01 | 0.01 | 70 | 1013.8 |
| 20260502213125 | 65 | 28 | 2.0 | 6.0 | 0.00 | 0.01 | 0.01 | 69 | 1014.0 |
| 20260502212210 | 64 | 359 | 1.0 | 5.0 | 0.00 | 0.01 | 0.01 | 70 | 1014.1 |
| 20260502211403 | 64 | 17 | 4.0 | 8.0 | 0.00 | 0.01 | 0.01 | 70 | 1014.2 |
| 20260502210429 | 64 | 265 | 1.0 | 3.0 | 0.00 | 0.01 | 0.01 | 71 | 1014.3 |
| 20260502205522 | 64 | 323 | 2.0 | 4.0 | 0.00 | 0.01 | 0.01 | 70 | 1014.6 |
| 20260502204525 | 64 | 63 | 1.0 | 4.0 | 0.00 | 0.01 | 0.01 | 71 | 1014.9 |
| 20260502203627 | 62 | 35 | 1.0 | 4.0 | 0.00 | 0.01 | 0.01 | 75 | 1014.9 |
| 20260502202629 | 60 | 346 | 2.0 | 6.0 | 0.00 | 0.01 | 0.01 | 77 | 1014.9 |
| 20260502201730 | 59 | 273 | 1.0 | 4.0 | 0.00 | 0.01 | 0.01 | 77 | 1015.1 |
| 20260502200032 | 59 | 309 | 3.0 | 7.0 | 0.00 | 0.01 | 0.01 | 76 | 1015.1 |
| 20260502195155 | 59 | 321 | 2.0 | 8.0 | 0.00 | 0.01 | 0.01 | 78 | 1015.1 |
| 20260502194315 | 59 | 337 | 2.0 | 6.0 | 0.00 | 0.01 | 0.01 | 78 | 1015.2 |
| 20260502193506 | 58 | 265 | 2.0 | 6.0 | 0.00 | 0.01 | 0.01 | 79 | 1015.2 |
| 20260502192549 | 58 | 332 | 2.0 | 9.0 | 0.00 | 0.01 | 0.01 | 80 | 1015.4 |
| 20260502191734 | 56 | 274 | 3.0 | 6.0 | 0.00 | 0.01 | 0.01 | 81 | 1015.5 |
| 20260502191640 | 56 | 274 | 3.0 | 6.0 | 0.00 | 0.01 | 0.01 | 81 | 1015.5 |
| 20260502190805 | 57 | 257 | 1.0 | 4.0 | 0.00 | 0.01 | 0.01 | 81 | 1015.8 |
| 20260502185049 | 55 | 59 | 1.0 | 3.0 | 0.00 | 0.01 | 0.01 | 83 | 1015.9 |
| 20260502184228 | 55 | 340 | 2.0 | 5.0 | 0.00 | 0.01 | 0.01 | 83 | 1015.6 |
| 20260502183249 | 54 | 89 | 0.0 | 3.0 | 0.00 | 0.01 | 0.01 | 86 | 1015.6 |
| 20260502182314 | 53 | 17 | 1.0 | 5.0 | 0.00 | 0.01 | 0.01 | 87 | 1015.9 |
| 20260502181335 | 53 | 328 | 1.0 | 4.0 | 0.00 | 0.01 | 0.01 | 87 | 1016.0 |
| 20260502180454 | 53 | 312 | 1.0 | 4.0 | 0.00 | 0.01 | 0.01 | 86 | 1016.0 |